createdAt,value
2022-09-14T00:02:33.954Z,26.31
2022-09-14T00:07:36.318Z,26.34
2022-09-14T00:12:38.309Z,26.32
2022-09-14T00:17:40.278Z,26.34
2022-09-14T00:22:42.105Z,26.33
2022-09-14T00:27:43.839Z,26.36
2022-09-14T00:32:45.765Z,26.36
2022-09-14T00:37:49.672Z,26.38
2022-09-14T00:42:51.971Z,26.36
2022-09-14T00:47:54.357Z,26.35
2022-09-14T00:52:57.097Z,26.36
2022-09-14T00:57:59.622Z,26.32
2022-09-14T01:03:02.169Z,26.36
2022-09-14T01:08:52.177Z,26.27
2022-09-14T01:14:13.662Z,26.31
2022-09-14T01:19:32.182Z,26.28
2022-09-14T01:24:46.088Z,26.34
2022-09-14T01:29:58.053Z,26.33
2022-09-14T01:35:05.938Z,26.33
2022-09-14T01:40:18.339Z,26.37
2022-09-14T01:45:22.728Z,26.31
2022-09-14T01:50:56.917Z,26.34
2022-09-14T01:56:03.669Z,26.30
2022-09-14T02:01:07.868Z,26.30
2022-09-14T02:06:19.567Z,26.32
2022-09-14T02:11:21.671Z,26.27
2022-09-14T02:16:25.035Z,26.32
2022-09-14T02:21:31.773Z,26.36
2022-09-14T02:26:34.123Z,26.35
2022-09-14T02:31:53.280Z,26.32
2022-09-14T02:37:04.314Z,26.30
2022-09-14T02:42:23.128Z,26.25
2022-09-14T02:47:55.682Z,26.30
2022-09-14T02:53:05.119Z,26.28
2022-09-14T02:58:15.106Z,26.28
2022-09-14T03:03:22.027Z,26.32
2022-09-14T03:08:25.745Z,26.33
2022-09-14T03:13:27.654Z,26.35
2022-09-14T03:18:29.938Z,26.39
2022-09-14T03:23:36.408Z,26.33
2022-09-14T03:28:38.843Z,26.37
2022-09-14T03:33:41.547Z,26.35
2022-09-14T03:38:48.648Z,26.34
2022-09-14T03:43:50.663Z,26.44
2022-09-14T03:48:54.426Z,26.38
2022-09-14T03:53:56.215Z,26.36
2022-09-14T03:58:57.899Z,26.33
2022-09-14T04:03:59.623Z,26.34
2022-09-14T04:09:01.342Z,26.32
2022-09-14T04:14:05.471Z,26.35
2022-09-14T04:19:07.692Z,26.35
2022-09-14T04:24:16.002Z,26.40
2022-09-14T04:29:18.018Z,26.34
2022-09-14T04:34:19.872Z,26.36
2022-09-14T04:39:21.814Z,26.37
2022-09-14T04:44:23.745Z,26.31
2022-09-14T04:49:25.923Z,26.31
2022-09-14T04:54:27.633Z,26.33
2022-09-14T04:59:29.453Z,26.35
2022-09-14T05:04:31.166Z,26.34
2022-09-14T05:09:32.886Z,26.35
2022-09-14T05:14:34.638Z,26.28
2022-09-14T05:19:36.552Z,26.34
2022-09-14T05:24:38.629Z,26.37
2022-09-14T05:29:40.737Z,26.42
2022-09-14T05:34:42.626Z,26.37
2022-09-14T05:39:44.760Z,26.39
2022-09-14T05:44:46.658Z,26.35
2022-09-14T05:49:48.811Z,26.39
2022-09-14T05:54:51.042Z,26.40
2022-09-14T05:59:52.967Z,26.34
2022-09-14T06:04:54.924Z,26.40
2022-09-14T06:09:57.027Z,26.33
2022-09-14T06:14:58.973Z,26.37
2022-09-14T06:20:04.404Z,26.43
2022-09-14T06:25:07.194Z,26.39
2022-09-14T06:30:09.593Z,26.35
2022-09-14T06:35:12.574Z,26.38
2022-09-14T06:40:14.871Z,26.39
2022-09-14T06:45:16.777Z,26.42
2022-09-14T06:50:18.878Z,26.41
2022-09-14T06:55:20.680Z,26.37
2022-09-14T07:00:22.582Z,26.36
2022-09-14T07:05:24.455Z,26.36
2022-09-14T07:10:28.471Z,26.39
2022-09-14T07:15:30.265Z,26.33
2022-09-14T07:20:33.699Z,26.41
2022-09-14T07:25:35.603Z,26.35
2022-09-14T07:30:39.004Z,26.36
2022-09-14T07:35:40.990Z,26.44
2022-09-14T07:40:43.004Z,26.34
2022-09-14T07:45:44.787Z,26.44
2022-09-14T07:50:47.412Z,26.39
2022-09-14T07:55:49.452Z,26.46
2022-09-14T08:00:51.460Z,26.32
2022-09-14T08:06:01.988Z,26.21
2022-09-14T08:11:19.945Z,26.20
2022-09-14T08:16:22.780Z,26.19
2022-09-14T08:21:25.546Z,26.25
2022-09-14T08:26:27.935Z,26.30
2022-09-14T08:31:29.819Z,26.39
2022-09-14T08:36:35.466Z,26.28
2022-09-14T08:41:46.453Z,26.35
2022-09-14T08:46:49.891Z,26.36
2022-09-14T08:51:52.265Z,26.33
2022-09-14T08:57:12.829Z,26.30
2022-09-14T09:02:22.514Z,26.36
2022-09-14T09:07:42.106Z,26.20
2022-09-14T09:12:51.769Z,26.07
2022-09-14T09:18:22.718Z,26.23
2022-09-14T09:23:27.621Z,26.29
2022-09-14T09:28:30.152Z,26.28
2022-09-14T09:33:32.383Z,26.26
2022-09-14T09:38:34.892Z,26.33
2022-09-14T09:43:58.587Z,26.23
2022-09-14T09:49:05.259Z,26.34
2022-09-14T09:54:13.459Z,26.29
2022-09-14T09:59:35.642Z,26.28
2022-09-14T10:04:37.581Z,26.33
2022-09-14T10:09:39.632Z,26.31
2022-09-14T10:14:42.104Z,26.29
2022-09-14T10:19:52.500Z,26.25
2022-09-14T10:25:15.506Z,26.30
2022-09-14T10:30:41.239Z,26.28
2022-09-14T10:36:05.081Z,26.29
2022-09-14T10:41:40.851Z,26.19
2022-09-14T10:47:10.090Z,26.28
2022-09-14T10:52:17.101Z,26.25
2022-09-14T10:57:49.477Z,26.21
2022-09-14T11:03:10.274Z,26.22
2022-09-14T11:08:21.232Z,25.99
2022-09-14T11:13:41.986Z,24.66
2022-09-14T11:19:03.153Z,24.78
2022-09-14T11:24:54.186Z,24.44
2022-09-14T11:30:37.346Z,24.18
2022-09-14T11:35:46.445Z,24.68
2022-09-14T11:41:04.560Z,23.68
2022-09-14T11:46:08.176Z,23.51
2022-09-14T11:51:15.638Z,23.38
2022-09-14T11:56:30.528Z,23.65
2022-09-14T12:01:37.165Z,23.86
2022-09-14T12:06:39.004Z,23.87
2022-09-14T12:11:42.552Z,23.54
2022-09-14T12:17:37.799Z,23.87
2022-09-14T12:22:38.098Z,24.00
2022-09-14T12:27:42.619Z,24.16
2022-09-14T12:32:44.502Z,24.43
2022-09-14T12:37:46.413Z,24.60
2022-09-14T12:42:48.516Z,24.79
2022-09-14T12:47:52.198Z,24.88
2022-09-14T12:53:22.146Z,24.47
2022-09-14T12:58:34.390Z,24.55
2022-09-14T13:03:54.443Z,24.68
2022-09-14T13:08:58.932Z,24.81
2022-09-14T13:14:02.249Z,24.90
2022-09-14T13:19:10.093Z,24.98
2022-09-14T13:24:44.967Z,24.15
2022-09-14T13:29:47.980Z,24.82
2022-09-14T13:34:50.281Z,24.80
2022-09-14T13:39:54.930Z,24.77
2022-09-14T13:44:57.160Z,24.79
2022-09-14T13:50:00.648Z,24.64
2022-09-14T13:55:23.434Z,24.67
2022-09-14T14:00:26.114Z,24.57
2022-09-14T14:05:32.527Z,24.73
2022-09-14T14:10:39.101Z,24.36
2022-09-14T14:15:43.575Z,24.61
2022-09-14T14:20:45.478Z,24.70
2022-09-14T14:25:54.673Z,24.85
2022-09-14T14:31:07.716Z,24.88
2022-09-14T14:36:11.029Z,24.94
2022-09-14T14:41:19.376Z,24.92
2022-09-14T14:46:21.383Z,24.94
2022-09-14T14:51:23.256Z,24.90
2022-09-14T14:56:25.474Z,24.89
2022-09-14T15:01:27.473Z,24.90
2022-09-14T15:06:29.815Z,24.97
2022-09-14T15:11:32.061Z,24.99
2022-09-14T15:16:34.688Z,25.05
2022-09-14T15:21:41.022Z,25.08
2022-09-14T15:26:43.043Z,25.04
2022-09-14T15:31:44.841Z,25.11
2022-09-14T15:36:51.852Z,25.09
2022-09-14T15:41:54.782Z,25.11
2022-09-14T15:46:57.476Z,25.24
2022-09-14T15:51:59.445Z,25.21
2022-09-14T15:57:01.588Z,25.25
2022-09-14T16:02:04.496Z,25.22
2022-09-14T16:07:10.144Z,25.19
2022-09-14T16:12:13.267Z,25.20
2022-09-14T16:17:15.820Z,25.32
2022-09-14T16:22:17.809Z,25.30
2022-09-14T16:27:19.813Z,25.15
2022-09-14T16:32:22.398Z,25.25
2022-09-14T16:37:24.300Z,25.20
2022-09-14T16:42:26.089Z,25.33
2022-09-14T16:47:28.355Z,25.32
2022-09-14T16:52:30.375Z,25.38
2022-09-14T16:57:32.834Z,25.46
2022-09-14T17:02:35.340Z,25.38
2022-09-14T17:07:37.508Z,25.38
2022-09-14T17:12:39.363Z,25.38
2022-09-14T17:17:41.142Z,25.37
2022-09-14T17:22:42.976Z,25.39
2022-09-14T17:27:44.901Z,25.35
2022-09-14T17:32:46.743Z,25.34
2022-09-14T17:37:48.617Z,25.40
2022-09-14T17:42:50.439Z,25.39
2022-09-14T17:47:52.474Z,25.43
2022-09-14T17:52:54.500Z,25.34
2022-09-14T17:57:56.501Z,25.38
2022-09-14T18:02:59.146Z,25.38
2022-09-14T18:08:01.368Z,25.42
2022-09-14T18:13:03.434Z,25.43
2022-09-14T18:18:06.205Z,25.40
2022-09-14T18:23:08.955Z,25.48
2022-09-14T18:28:10.839Z,25.38
2022-09-14T18:33:12.746Z,25.44
2022-09-14T18:38:14.635Z,25.55
2022-09-14T18:43:17.214Z,25.53
2022-09-14T18:48:19.085Z,25.55
2022-09-14T18:53:20.903Z,25.56
2022-09-14T18:58:22.774Z,25.56
2022-09-14T19:03:25.168Z,25.56
2022-09-14T19:08:28.558Z,25.56
2022-09-14T19:13:30.462Z,25.54
2022-09-14T19:18:32.371Z,25.54
2022-09-14T19:23:34.786Z,25.54
2022-09-14T19:28:37.794Z,25.49
2022-09-14T19:33:45.063Z,25.58
2022-09-14T19:38:49.026Z,25.53
2022-09-14T19:43:50.903Z,25.55
2022-09-14T19:48:53.480Z,25.51
2022-09-14T19:53:57.752Z,25.51
2022-09-14T19:59:02.371Z,25.54
2022-09-14T20:04:05.636Z,25.55
2022-09-14T20:09:21.486Z,25.46
2022-09-14T20:14:25.530Z,25.49
2022-09-14T20:19:29.343Z,25.52
2022-09-14T20:24:32.546Z,25.52
2022-09-14T20:29:36.102Z,25.49
2022-09-14T20:34:37.922Z,25.51
2022-09-14T20:39:40.141Z,25.55
2022-09-14T20:44:42.205Z,25.51
2022-09-14T20:49:44.106Z,25.51
2022-09-14T20:54:46.095Z,25.45
2022-09-14T20:59:48.167Z,25.43
2022-09-14T21:04:50.568Z,25.45
2022-09-14T21:09:52.558Z,25.42
2022-09-14T21:14:54.813Z,25.50
2022-09-14T21:19:56.607Z,25.48
2022-09-14T21:24:58.550Z,25.48
2022-09-14T21:30:00.351Z,25.50
2022-09-14T21:35:02.070Z,25.52
2022-09-14T21:40:04.195Z,25.49
2022-09-14T21:45:06.478Z,25.49
2022-09-14T21:50:08.783Z,25.48
2022-09-14T21:55:11.419Z,25.49
2022-09-14T22:00:14.057Z,25.43
2022-09-14T22:05:16.131Z,25.50
2022-09-14T22:10:18.006Z,25.48
2022-09-14T22:15:19.746Z,25.46
2022-09-14T22:20:21.602Z,25.55
2022-09-14T22:25:25.291Z,25.49
2022-09-14T22:30:27.295Z,25.45
2022-09-14T22:35:29.140Z,25.50
2022-09-14T22:40:31.582Z,25.51
2022-09-14T22:45:33.297Z,25.54
2022-09-14T22:50:35.411Z,25.54
2022-09-14T22:55:38.305Z,25.55
2022-09-14T23:00:41.037Z,25.46
2022-09-14T23:05:51.745Z,25.45
2022-09-14T23:10:55.047Z,25.46
2022-09-14T23:15:56.966Z,25.41
2022-09-14T23:21:03.187Z,25.45
2022-09-14T23:26:07.317Z,25.46
2022-09-14T23:31:09.112Z,25.45
2022-09-14T23:36:10.851Z,25.50
2022-09-14T23:41:12.555Z,25.49
2022-09-14T23:46:15.258Z,25.46
2022-09-14T23:51:17.248Z,25.40
2022-09-14T23:56:19.095Z,25.42
